Terminal Aerodrome Forecast
Issued by NWS Missoula, MT

Home | Current Version | Previous Version | Text Only | Print | Product List | Glossary On
Versions: 1 2 3 4 5 6 7 8 9 10 11 12 13
000
FTUS45 KMSO 240500
TAFMSO
TAF
KMSO 240540Z 2406/2506 02005KT P6SM -RA BKN018 OVC040
     FM241300 23009KT P6SM -SHRA BKN030 OVC040
     FM242000 27010G18KT P6SM -SHRA BKN025 OVC035
     FM250300 27006KT P6SM VCSH BKN040 OVC060=

USA.gov is the U.S. government's official web portal to all federal, state and local government web resources and services.